sensor_id;sensor_type;location;lat;lon;timestamp;pressure;altitude;pressure_sealevel;temperature;humidity
11038;BME280;5572;49.540;11.932;2023-05-31T00:02:13;97563.56;;;8.76;100.00
11038;BME280;5572;49.540;11.932;2023-05-31T00:04:39;97551.44;;;9.00;100.00
11038;BME280;5572;49.540;11.932;2023-05-31T00:07:06;97555.00;;;9.06;100.00
11038;BME280;5572;49.540;11.932;2023-05-31T00:09:34;97549.94;;;9.14;100.00
11038;BME280;5572;49.540;11.932;2023-05-31T00:12:01;97532.94;;;9.14;100.00
11038;BME280;5572;49.540;11.932;2023-05-31T00:14:27;97532.00;;;8.72;100.00
11038;BME280;5572;49.540;11.932;2023-05-31T00:16:54;97522.06;;;8.51;100.00
11038;BME280;5572;49.540;11.932;2023-05-31T00:19:21;97504.28;;;8.76;100.00
11038;BME280;5572;49.540;11.932;2023-05-31T00:21:47;97503.22;;;8.77;100.00
11038;BME280;5572;49.540;11.932;2023-05-31T00:24:15;97492.88;;;8.43;100.00
11038;BME280;5572;49.540;11.932;2023-05-31T00:26:43;97476.63;;;8.59;100.00
11038;BME280;5572;49.540;11.932;2023-05-31T00:29:10;97476.72;;;8.69;100.00
11038;BME280;5572;49.540;11.932;2023-05-31T00:31:36;97472.78;;;8.55;100.00
11038;BME280;5572;49.540;11.932;2023-05-31T00:34:03;97458.75;;;8.80;100.00
11038;BME280;5572;49.540;11.932;2023-05-31T00:36:30;97459.28;;;8.77;100.00
11038;BME280;5572;49.540;11.932;2023-05-31T00:38:56;97438.56;;;8.82;100.00
11038;BME280;5572;49.540;11.932;2023-05-31T00:41:23;97430.31;;;8.99;100.00
11038;BME280;5572;49.540;11.932;2023-05-31T00:43:52;97426.00;;;8.61;100.00
11038;BME280;5572;49.540;11.932;2023-05-31T00:46:25;97414.09;;;8.31;100.00
11038;BME280;5572;49.540;11.932;2023-05-31T00:48:52;97394.56;;;8.46;100.00
11038;BME280;5572;49.540;11.932;2023-05-31T00:51:19;97378.25;;;8.57;100.00
11038;BME280;5572;49.540;11.932;2023-05-31T00:53:45;97370.97;;;8.57;100.00
11038;BME280;5572;49.540;11.932;2023-05-31T00:56:13;97350.47;;;8.88;100.00
11038;BME280;5572;49.540;11.932;2023-05-31T00:58:40;97353.06;;;8.42;100.00
11038;BME280;5572;49.540;11.932;2023-05-31T01:01:08;97347.50;;;8.22;100.00
11038;BME280;5572;49.540;11.932;2023-05-31T01:03:36;97335.59;;;8.18;100.00
11038;BME280;5572;49.540;11.932;2023-05-31T01:06:03;97327.09;;;8.31;100.00
11038;BME280;5572;49.540;11.932;2023-05-31T01:08:30;97306.91;;;8.28;100.00
11038;BME280;5572;49.540;11.932;2023-05-31T01:10:59;97289.81;;;8.18;100.00
11038;BME280;5572;49.540;11.932;2023-05-31T01:13:35;97276.81;;;8.15;100.00
11038;BME280;5572;49.540;11.932;2023-05-31T01:16:06;97267.59;;;8.06;100.00
11038;BME280;5572;49.540;11.932;2023-05-31T01:18:41;97270.84;;;8.08;100.00
11038;BME280;5572;49.540;11.932;2023-05-31T01:21:12;97263.75;;;7.97;100.00
11038;BME280;5572;49.540;11.932;2023-05-31T01:24:00;97250.78;;;7.94;100.00
11038;BME280;5572;49.540;11.932;2023-05-31T01:26:37;97245.22;;;8.00;100.00
11038;BME280;5572;49.540;11.932;2023-05-31T01:29:11;97245.69;;;7.92;100.00
11038;BME280;5572;49.540;11.932;2023-05-31T01:31:39;97250.69;;;7.84;100.00
11038;BME280;5572;49.540;11.932;2023-05-31T01:34:07;97234.72;;;7.72;100.00
11038;BME280;5572;49.540;11.932;2023-05-31T01:36:33;97227.78;;;7.76;100.00
11038;BME280;5572;49.540;11.932;2023-05-31T01:39:01;97227.69;;;7.67;100.00
11038;BME280;5572;49.540;11.932;2023-05-31T01:41:29;97220.00;;;7.80;100.00
11038;BME280;5572;49.540;11.932;2023-05-31T01:43:59;97223.19;;;7.77;100.00
11038;BME280;5572;49.540;11.932;2023-05-31T01:46:26;97234.78;;;7.51;100.00
11038;BME280;5572;49.540;11.932;2023-05-31T01:48:53;97220.47;;;7.46;100.00
11038;BME280;5572;49.540;11.932;2023-05-31T01:51:21;97210.97;;;7.65;100.00
11038;BME280;5572;49.540;11.932;2023-05-31T01:53:48;97207.47;;;7.64;100.00
11038;BME280;5572;49.540;11.932;2023-05-31T01:56:15;97213.47;;;7.45;100.00
11038;BME280;5572;49.540;11.932;2023-05-31T01:58:43;97205.69;;;7.48;100.00
11038;BME280;5572;49.540;11.932;2023-05-31T02:01:15;97202.53;;;7.51;100.00
11038;BME280;5572;49.540;11.932;2023-05-31T02:03:43;97194.19;;;7.53;100.00
11038;BME280;5572;49.540;11.932;2023-05-31T02:06:10;97189.72;;;7.63;100.00
11038;BME280;5572;49.540;11.932;2023-05-31T02:08:38;97203.69;;;7.34;100.00
11038;BME280;5572;49.540;11.932;2023-05-31T02:11:04;97199.19;;;7.44;100.00
11038;BME280;5572;49.540;11.932;2023-05-31T02:13:31;97193.63;;;7.51;100.00
11038;BME280;5572;49.540;11.932;2023-05-31T02:15:57;97186.88;;;7.48;100.00
11038;BME280;5572;49.540;11.932;2023-05-31T02:18:25;97189.75;;;7.42;100.00
11038;BME280;5572;49.540;11.932;2023-05-31T02:20:53;97190.34;;;7.44;100.00
11038;BME280;5572;49.540;11.932;2023-05-31T02:23:20;97196.06;;;7.52;100.00
11038;BME280;5572;49.540;11.932;2023-05-31T02:25:48;97202.25;;;7.26;100.00
11038;BME280;5572;49.540;11.932;2023-05-31T02:28:15;97194.81;;;7.33;100.00
11038;BME280;5572;49.540;11.932;2023-05-31T02:30:52;97202.00;;;7.28;100.00
11038;BME280;5572;49.540;11.932;2023-05-31T02:33:19;97200.38;;;7.05;100.00
11038;BME280;5572;49.540;11.932;2023-05-31T02:35:47;97186.09;;;7.26;100.00
11038;BME280;5572;49.540;11.932;2023-05-31T02:38:14;97189.31;;;7.23;100.00
11038;BME280;5572;49.540;11.932;2023-05-31T02:40:40;97182.06;;;7.24;100.00
11038;BME280;5572;49.540;11.932;2023-05-31T02:43:06;97179.66;;;7.27;100.00
11038;BME280;5572;49.540;11.932;2023-05-31T02:45:33;97179.56;;;7.17;100.00
11038;BME280;5572;49.540;11.932;2023-05-31T02:47:59;97158.75;;;7.61;100.00
11038;BME280;5572;49.540;11.932;2023-05-31T02:50:30;97148.44;;;7.84;100.00
11038;BME280;5572;49.540;11.932;2023-05-31T02:52:58;97142.63;;;7.97;100.00
11038;BME280;5572;49.540;11.932;2023-05-31T02:55:25;97134.56;;;7.97;100.00
11038;BME280;5572;49.540;11.932;2023-05-31T02:57:52;97122.38;;;7.89;100.00
11038;BME280;5572;49.540;11.932;2023-05-31T03:00:19;97110.16;;;8.13;100.00
11038;BME280;5572;49.540;11.932;2023-05-31T03:02:45;97092.53;;;8.32;100.00
11038;BME280;5572;49.540;11.932;2023-05-31T03:05:12;97097.59;;;8.24;100.00
11038;BME280;5572;49.540;11.932;2023-05-31T03:07:38;97112.56;;;8.10;100.00
11038;BME280;5572;49.540;11.932;2023-05-31T03:10:08;97108.72;;;8.37;100.00
11038;BME280;5572;49.540;11.932;2023-05-31T03:12:35;97112.16;;;8.28;100.00
11038;BME280;5572;49.540;11.932;2023-05-31T03:15:03;97127.44;;;7.81;100.00
11038;BME280;5572;49.540;11.932;2023-05-31T03:17:30;97114.28;;;7.84;100.00
11038;BME280;5572;49.540;11.932;2023-05-31T03:19:56;97117.25;;;7.88;100.00
11038;BME280;5572;49.540;11.932;2023-05-31T03:22:23;97125.34;;;7.88;100.00
11038;BME280;5572;49.540;11.932;2023-05-31T03:24:50;97136.78;;;7.68;100.00
11038;BME280;5572;49.540;11.932;2023-05-31T03:27:18;97143.31;;;7.77;100.00
11038;BME280;5572;49.540;11.932;2023-05-31T03:29:44;97148.63;;;7.72;100.00
11038;BME280;5572;49.540;11.932;2023-05-31T03:32:11;97152.81;;;7.90;100.00
11038;BME280;5572;49.540;11.932;2023-05-31T03:34:37;97162.72;;;7.84;100.00
11038;BME280;5572;49.540;11.932;2023-05-31T03:37:04;97182.09;;;7.55;100.00
11038;BME280;5572;49.540;11.932;2023-05-31T03:39:31;97155.13;;;7.76;100.00
11038;BME280;5572;49.540;11.932;2023-05-31T03:44:30;97169.78;;;7.59;100.00
11038;BME280;5572;49.540;11.932;2023-05-31T03:46:57;97176.19;;;7.53;100.00
11038;BME280;5572;49.540;11.932;2023-05-31T03:49:24;97169.56;;;7.66;100.00
11038;BME280;5572;49.540;11.932;2023-05-31T03:51:50;97160.06;;;7.89;100.00
11038;BME280;5572;49.540;11.932;2023-05-31T03:54:17;97172.41;;;7.85;100.00
11038;BME280;5572;49.540;11.932;2023-05-31T03:56:43;97171.06;;;7.83;100.00
11038;BME280;5572;49.540;11.932;2023-05-31T03:59:10;97186.47;;;7.61;100.00
11038;BME280;5572;49.540;11.932;2023-05-31T04:01:38;97184.19;;;7.79;100.00
11038;BME280;5572;49.540;11.932;2023-05-31T04:04:04;97178.69;;;7.96;100.00
11038;BME280;5572;49.540;11.932;2023-05-31T04:06:31;97194.03;;;7.95;100.00
11038;BME280;5572;49.540;11.932;2023-05-31T04:08:57;97180.50;;;8.17;100.00
11038;BME280;5572;49.540;11.932;2023-05-31T04:11:24;97178.91;;;8.21;100.00
11038;BME280;5572;49.540;11.932;2023-05-31T04:13:51;97188.84;;;8.15;100.00
11038;BME280;5572;49.540;11.932;2023-05-31T04:16:18;97173.03;;;8.29;100.00
11038;BME280;5572;49.540;11.932;2023-05-31T04:18:46;97162.66;;;8.47;100.00
11038;BME280;5572;49.540;11.932;2023-05-31T04:21:13;97150.63;;;8.69;100.00
11038;BME280;5572;49.540;11.932;2023-05-31T04:23:39;97156.44;;;9.13;100.00
11038;BME280;5572;49.540;11.932;2023-05-31T04:26:06;97157.38;;;9.53;100.00
11038;BME280;5572;49.540;11.932;2023-05-31T04:28:32;97162.47;;;10.44;100.00
11038;BME280;5572;49.540;11.932;2023-05-31T04:31:00;97181.63;;;10.62;100.00
11038;BME280;5572;49.540;11.932;2023-05-31T04:33:27;97179.13;;;10.81;100.00
11038;BME280;5572;49.540;11.932;2023-05-31T04:35:56;97188.63;;;10.78;100.00
11038;BME280;5572;49.540;11.932;2023-05-31T04:38:24;97199.13;;;10.95;100.00
11038;BME280;5572;49.540;11.932;2023-05-31T04:40:52;97183.38;;;12.83;100.00
11038;BME280;5572;49.540;11.932;2023-05-31T04:43:19;97177.63;;;14.73;100.00
11038;BME280;5572;49.540;11.932;2023-05-31T04:45:45;97216.22;;;14.62;100.00
11038;BME280;5572;49.540;11.932;2023-05-31T04:48:14;97189.53;;;15.71;100.00
11038;BME280;5572;49.540;11.932;2023-05-31T04:50:42;97193.50;;;15.12;100.00
11038;BME280;5572;49.540;11.932;2023-05-31T04:53:10;97132.53;;;16.71;100.00
11038;BME280;5572;49.540;11.932;2023-05-31T04:55:37;97097.31;;;16.61;100.00
11038;BME280;5572;49.540;11.932;2023-05-31T04:58:03;97082.56;;;16.62;100.00
11038;BME280;5572;49.540;11.932;2023-05-31T05:00:30;97043.47;;;17.00;100.00
11038;BME280;5572;49.540;11.932;2023-05-31T05:02:57;97001.50;;;16.79;100.00
11038;BME280;5572;49.540;11.932;2023-05-31T05:05:24;96937.25;;;18.29;100.00
11038;BME280;5572;49.540;11.932;2023-05-31T05:07:51;96925.81;;;17.81;100.00
11038;BME280;5572;49.540;11.932;2023-05-31T05:10:19;96873.94;;;17.93;100.00
11038;BME280;5572;49.540;11.932;2023-05-31T05:12:46;96868.72;;;18.09;100.00
11038;BME280;5572;49.540;11.932;2023-05-31T05:15:12;96778.22;;;18.83;100.00
11038;BME280;5572;49.540;11.932;2023-05-31T05:17:39;96731.00;;;18.66;100.00
11038;BME280;5572;49.540;11.932;2023-05-31T05:20:07;96701.59;;;18.42;100.00
11038;BME280;5572;49.540;11.932;2023-05-31T05:22:35;96665.00;;;18.47;100.00
11038;BME280;5572;49.540;11.932;2023-05-31T05:25:02;96688.03;;;18.46;100.00
11038;BME280;5572;49.540;11.932;2023-05-31T05:27:30;96614.63;;;19.40;100.00
11038;BME280;5572;49.540;11.932;2023-05-31T05:29:56;96556.66;;;18.58;100.00
11038;BME280;5572;49.540;11.932;2023-05-31T05:32:23;96471.50;;;20.01;100.00
11038;BME280;5572;49.540;11.932;2023-05-31T05:34:50;96496.22;;;19.62;100.00
11038;BME280;5572;49.540;11.932;2023-05-31T05:37:16;96516.63;;;19.76;100.00
11038;BME280;5572;49.540;11.932;2023-05-31T05:39:43;96444.34;;;20.27;100.00
11038;BME280;5572;49.540;11.932;2023-05-31T05:42:09;96312.31;;;21.19;100.00
11038;BME280;5572;49.540;11.932;2023-05-31T05:44:38;96313.09;;;21.20;100.00
11038;BME280;5572;49.540;11.932;2023-05-31T05:47:05;96348.63;;;20.75;100.00
11038;BME280;5572;49.540;11.932;2023-05-31T05:49:32;96270.44;;;20.73;100.00
11038;BME280;5572;49.540;11.932;2023-05-31T05:51:59;96293.66;;;20.56;100.00
11038;BME280;5572;49.540;11.932;2023-05-31T05:54:26;96259.28;;;21.82;100.00
11038;BME280;5572;49.540;11.932;2023-05-31T05:56:52;96314.91;;;20.44;100.00
11038;BME280;5572;49.540;11.932;2023-05-31T05:59:19;96281.94;;;20.59;100.00
11038;BME280;5572;49.540;11.932;2023-05-31T06:01:47;96221.25;;;22.14;100.00
11038;BME280;5572;49.540;11.932;2023-05-31T06:04:13;96183.53;;;21.66;100.00
11038;BME280;5572;49.540;11.932;2023-05-31T06:06:40;96273.66;;;19.32;100.00
11038;BME280;5572;49.540;11.932;2023-05-31T06:09:07;96316.78;;;21.08;100.00
11038;BME280;5572;49.540;11.932;2023-05-31T06:11:33;96165.84;;;22.19;100.00
11038;BME280;5572;49.540;11.932;2023-05-31T06:14:00;96303.53;;;19.80;100.00
11038;BME280;5572;49.540;11.932;2023-05-31T06:16:26;96286.88;;;20.35;100.00
11038;BME280;5572;49.540;11.932;2023-05-31T06:18:54;96403.53;;;20.10;100.00
11038;BME280;5572;49.540;11.932;2023-05-31T06:21:21;96391.25;;;19.10;100.00
11038;BME280;5572;49.540;11.932;2023-05-31T06:23:47;96299.88;;;19.61;100.00
11038;BME280;5572;49.540;11.932;2023-05-31T06:26:14;96287.41;;;19.63;100.00
11038;BME280;5572;49.540;11.932;2023-05-31T06:28:41;96279.72;;;20.15;100.00
11038;BME280;5572;49.540;11.932;2023-05-31T06:31:07;96315.88;;;19.43;100.00
11038;BME280;5572;49.540;11.932;2023-05-31T06:33:34;96324.66;;;19.64;100.00
11038;BME280;5572;49.540;11.932;2023-05-31T06:36:03;96250.00;;;19.71;100.00
11038;BME280;5572;49.540;11.932;2023-05-31T06:38:30;96336.94;;;18.61;100.00
11038;BME280;5572;49.540;11.932;2023-05-31T06:40:56;96293.28;;;20.92;100.00
11038;BME280;5572;49.540;11.932;2023-05-31T06:43:23;96242.97;;;19.27;100.00
11038;BME280;5572;49.540;11.932;2023-05-31T06:45:50;96445.19;;;18.22;100.00
11038;BME280;5572;49.540;11.932;2023-05-31T06:48:16;96429.47;;;20.12;100.00
11038;BME280;5572;49.540;11.932;2023-05-31T06:50:43;96538.72;;;18.36;100.00
11038;BME280;5572;49.540;11.932;2023-05-31T06:53:11;96540.13;;;18.22;100.00
11038;BME280;5572;49.540;11.932;2023-05-31T06:55:38;96531.06;;;18.10;100.00
11038;BME280;5572;49.540;11.932;2023-05-31T06:58:06;96545.88;;;18.29;100.00
11038;BME280;5572;49.540;11.932;2023-05-31T07:00:32;96543.63;;;18.31;100.00
11038;BME280;5572;49.540;11.932;2023-05-31T07:02:59;96570.31;;;18.13;100.00
11038;BME280;5572;49.540;11.932;2023-05-31T07:05:25;96593.16;;;17.27;100.00
11038;BME280;5572;49.540;11.932;2023-05-31T07:07:52;96583.75;;;17.86;100.00
11038;BME280;5572;49.540;11.932;2023-05-31T07:10:20;96556.28;;;18.47;100.00
11038;BME280;5572;49.540;11.932;2023-05-31T07:12:46;96550.31;;;19.13;100.00
11038;BME280;5572;49.540;11.932;2023-05-31T07:15:13;96602.25;;;17.89;100.00
11038;BME280;5572;49.540;11.932;2023-05-31T07:17:40;96523.81;;;19.29;100.00
11038;BME280;5572;49.540;11.932;2023-05-31T07:20:08;96488.28;;;19.72;100.00
11038;BME280;5572;49.540;11.932;2023-05-31T07:22:34;96390.13;;;20.55;100.00
11038;BME280;5572;49.540;11.932;2023-05-31T07:25:01;96435.66;;;20.56;100.00
11038;BME280;5572;49.540;11.932;2023-05-31T07:27:30;96478.16;;;20.15;100.00
11038;BME280;5572;49.540;11.932;2023-05-31T07:29:56;96509.38;;;20.69;100.00
11038;BME280;5572;49.540;11.932;2023-05-31T07:32:23;96351.53;;;20.01;100.00
11038;BME280;5572;49.540;11.932;2023-05-31T07:34:50;96429.63;;;20.04;100.00
11038;BME280;5572;49.540;11.932;2023-05-31T07:37:16;96399.00;;;20.17;100.00
11038;BME280;5572;49.540;11.932;2023-05-31T07:39:43;96414.59;;;18.92;100.00
11038;BME280;5572;49.540;11.932;2023-05-31T07:42:10;96438.38;;;19.39;100.00
11038;BME280;5572;49.540;11.932;2023-05-31T07:44:39;96389.66;;;19.91;100.00
11038;BME280;5572;49.540;11.932;2023-05-31T07:47:06;96403.63;;;20.29;100.00
11038;BME280;5572;49.540;11.932;2023-05-31T07:49:33;96342.88;;;19.72;100.00
11038;BME280;5572;49.540;11.932;2023-05-31T07:51:59;96339.19;;;19.10;100.00
11038;BME280;5572;49.540;11.932;2023-05-31T07:54:26;96389.81;;;19.83;100.00
11038;BME280;5572;49.540;11.932;2023-05-31T07:56:53;96263.19;;;19.96;100.00
11038;BME280;5572;49.540;11.932;2023-05-31T07:59:20;96352.47;;;21.05;100.00
11038;BME280;5572;49.540;11.932;2023-05-31T08:01:48;96333.41;;;20.62;100.00
11038;BME280;5572;49.540;11.932;2023-05-31T08:04:15;96294.63;;;21.01;100.00
11038;BME280;5572;49.540;11.932;2023-05-31T08:06:42;96240.41;;;20.80;100.00
11038;BME280;5572;49.540;11.932;2023-05-31T08:09:09;96201.56;;;21.22;100.00
11038;BME280;5572;49.540;11.932;2023-05-31T08:11:35;96373.97;;;21.56;100.00
11038;BME280;5572;49.540;11.932;2023-05-31T08:14:02;96293.53;;;20.53;100.00
11038;BME280;5572;49.540;11.932;2023-05-31T08:16:31;96216.78;;;21.58;100.00
11038;BME280;5572;49.540;11.932;2023-05-31T08:18:59;96220.19;;;20.34;100.00
11038;BME280;5572;49.540;11.932;2023-05-31T08:21:26;96260.22;;;20.88;100.00
11038;BME280;5572;49.540;11.932;2023-05-31T08:23:53;96276.31;;;20.71;100.00
11038;BME280;5572;49.540;11.932;2023-05-31T08:26:20;96249.88;;;21.83;100.00
11038;BME280;5572;49.540;11.932;2023-05-31T08:28:47;96302.75;;;20.26;100.00
11038;BME280;5572;49.540;11.932;2023-05-31T08:31:13;96244.50;;;21.68;100.00
11038;BME280;5572;49.540;11.932;2023-05-31T08:33:52;96159.03;;;23.01;100.00
11038;BME280;5572;49.540;11.932;2023-05-31T08:36:20;96176.53;;;21.72;100.00
11038;BME280;5572;49.540;11.932;2023-05-31T08:38:47;96152.09;;;22.48;100.00
11038;BME280;5572;49.540;11.932;2023-05-31T08:41:14;96132.00;;;22.18;100.00
11038;BME280;5572;49.540;11.932;2023-05-31T08:43:41;96093.81;;;21.13;100.00
11038;BME280;5572;49.540;11.932;2023-05-31T08:46:09;96026.63;;;22.54;100.00
11038;BME280;5572;49.540;11.932;2023-05-31T08:48:41;96187.38;;;21.62;100.00
11038;BME280;5572;49.540;11.932;2023-05-31T08:51:09;96173.84;;;21.08;100.00
11038;BME280;5572;49.540;11.932;2023-05-31T08:53:38;96166.84;;;20.92;100.00
11038;BME280;5572;49.540;11.932;2023-05-31T08:56:07;96132.09;;;21.70;100.00
11038;BME280;5572;49.540;11.932;2023-05-31T08:58:34;95979.41;;;22.23;100.00
11038;BME280;5572;49.540;11.932;2023-05-31T09:01:02;96048.63;;;21.88;100.00
11038;BME280;5572;49.540;11.932;2023-05-31T09:03:31;96045.16;;;21.95;100.00
11038;BME280;5572;49.540;11.932;2023-05-31T09:05:58;96016.22;;;22.77;100.00
11038;BME280;5572;49.540;11.932;2023-05-31T09:08:25;96114.78;;;22.25;100.00
11038;BME280;5572;49.540;11.932;2023-05-31T09:10:53;96255.19;;;22.47;100.00
11038;BME280;5572;49.540;11.932;2023-05-31T09:13:20;96331.69;;;22.09;100.00
11038;BME280;5572;49.540;11.932;2023-05-31T09:15:48;96279.97;;;22.21;100.00
11038;BME280;5572;49.540;11.932;2023-05-31T09:18:18;96196.78;;;22.97;100.00
11038;BME280;5572;49.540;11.932;2023-05-31T09:20:46;96243.84;;;22.26;100.00
11038;BME280;5572;49.540;11.932;2023-05-31T09:23:13;96275.19;;;21.51;100.00
11038;BME280;5572;49.540;11.932;2023-05-31T09:25:44;96295.63;;;21.69;100.00
11038;BME280;5572;49.540;11.932;2023-05-31T09:28:12;96282.28;;;21.71;100.00
11038;BME280;5572;49.540;11.932;2023-05-31T09:30:39;96023.00;;;22.86;100.00
11038;BME280;5572;49.540;11.932;2023-05-31T09:33:06;96245.25;;;22.65;100.00
11038;BME280;5572;49.540;11.932;2023-05-31T09:35:33;96204.41;;;22.45;100.00
11038;BME280;5572;49.540;11.932;2023-05-31T09:38:03;96146.53;;;22.74;100.00
11038;BME280;5572;49.540;11.932;2023-05-31T09:40:31;96339.53;;;23.69;100.00
11038;BME280;5572;49.540;11.932;2023-05-31T09:46:46;96226.25;;;22.60;100.00
11038;BME280;5572;49.540;11.932;2023-05-31T09:49:13;96063.94;;;22.84;100.00
11038;BME280;5572;49.540;11.932;2023-05-31T09:51:39;96163.41;;;22.72;100.00
11038;BME280;5572;49.540;11.932;2023-05-31T09:54:10;96295.94;;;22.35;100.00
11038;BME280;5572;49.540;11.932;2023-05-31T09:56:37;96177.56;;;22.38;100.00
11038;BME280;5572;49.540;11.932;2023-05-31T09:59:05;96056.22;;;23.44;100.00
11038;BME280;5572;49.540;11.932;2023-05-31T10:01:32;96224.91;;;22.47;100.00
11038;BME280;5572;49.540;11.932;2023-05-31T10:04:01;96189.91;;;23.49;100.00
11038;BME280;5572;49.540;11.932;2023-05-31T10:06:28;96045.22;;;23.47;100.00
11038;BME280;5572;49.540;11.932;2023-05-31T10:08:55;96018.09;;;23.63;100.00
11038;BME280;5572;49.540;11.932;2023-05-31T10:11:24;96093.31;;;24.00;100.00
11038;BME280;5572;49.540;11.932;2023-05-31T10:13:56;96038.56;;;24.26;100.00
11038;BME280;5572;49.540;11.932;2023-05-31T10:16:25;96079.75;;;23.31;100.00
11038;BME280;5572;49.540;11.932;2023-05-31T10:18:54;95927.94;;;23.17;100.00
11038;BME280;5572;49.540;11.932;2023-05-31T10:21:27;95837.41;;;23.29;100.00
11038;BME280;5572;49.540;11.932;2023-05-31T10:23:56;96090.94;;;22.68;100.00
11038;BME280;5572;49.540;11.932;2023-05-31T10:26:28;96071.34;;;24.24;100.00
11038;BME280;5572;49.540;11.932;2023-05-31T10:29:03;96042.69;;;22.45;100.00
11038;BME280;5572;49.540;11.932;2023-05-31T10:31:36;96037.94;;;23.25;100.00
11038;BME280;5572;49.540;11.932;2023-05-31T10:34:14;96046.38;;;23.46;100.00
11038;BME280;5572;49.540;11.932;2023-05-31T10:36:43;96008.34;;;23.22;100.00
11038;BME280;5572;49.540;11.932;2023-05-31T10:39:15;96104.38;;;22.73;100.00
11038;BME280;5572;49.540;11.932;2023-05-31T10:41:48;96027.50;;;24.23;100.00
11038;BME280;5572;49.540;11.932;2023-05-31T10:44:22;95863.34;;;24.34;100.00
11038;BME280;5572;49.540;11.932;2023-05-31T10:46:56;95728.34;;;23.73;100.00
11038;BME280;5572;49.540;11.932;2023-05-31T10:49:28;95891.09;;;22.85;100.00
11038;BME280;5572;49.540;11.932;2023-05-31T10:52:03;96064.47;;;23.94;100.00
11038;BME280;5572;49.540;11.932;2023-05-31T10:54:32;96059.13;;;24.29;100.00
11038;BME280;5572;49.540;11.932;2023-05-31T10:57:02;96098.97;;;24.28;100.00
11038;BME280;5572;49.540;11.932;2023-05-31T10:59:39;96002.91;;;22.46;100.00
11038;BME280;5572;49.540;11.932;2023-05-31T11:02:06;95969.63;;;23.65;100.00
11038;BME280;5572;49.540;11.932;2023-05-31T11:04:34;96056.75;;;23.13;100.00
11038;BME280;5572;49.540;11.932;2023-05-31T11:07:12;95908.28;;;24.07;100.00
11038;BME280;5572;49.540;11.932;2023-05-31T11:09:40;95945.53;;;23.02;100.00
11038;BME280;5572;49.540;11.932;2023-05-31T11:12:07;95963.44;;;23.89;100.00
11038;BME280;5572;49.540;11.932;2023-05-31T11:14:37;95904.97;;;23.02;100.00
11038;BME280;5572;49.540;11.932;2023-05-31T11:17:14;95833.34;;;24.71;100.00
11038;BME280;5572;49.540;11.932;2023-05-31T11:19:41;95945.44;;;23.38;100.00
11038;BME280;5572;49.540;11.932;2023-05-31T11:22:12;95761.84;;;24.83;100.00
11038;BME280;5572;49.540;11.932;2023-05-31T11:24:47;95776.78;;;23.50;100.00
11038;BME280;5572;49.540;11.932;2023-05-31T11:27:16;95906.41;;;23.40;100.00
11038;BME280;5572;49.540;11.932;2023-05-31T11:29:55;95728.91;;;25.95;100.00
11038;BME280;5572;49.540;11.932;2023-05-31T11:32:55;95963.34;;;25.30;100.00
11038;BME280;5572;49.540;11.932;2023-05-31T11:35:22;95758.34;;;24.06;100.00
11038;BME280;5572;49.540;11.932;2023-05-31T11:37:59;95713.69;;;24.77;100.00
11038;BME280;5572;49.540;11.932;2023-05-31T11:40:26;95780.44;;;23.96;100.00
11038;BME280;5572;49.540;11.932;2023-05-31T11:42:55;95786.72;;;24.90;100.00
11038;BME280;5572;49.540;11.932;2023-05-31T11:45:28;95795.81;;;23.90;100.00
11038;BME280;5572;49.540;11.932;2023-05-31T11:48:00;95890.88;;;23.85;100.00
11038;BME280;5572;49.540;11.932;2023-05-31T11:50:31;95998.03;;;23.73;100.00
11038;BME280;5572;49.540;11.932;2023-05-31T11:53:02;95991.38;;;24.97;100.00
11038;BME280;5572;49.540;11.932;2023-05-31T11:55:29;96180.81;;;25.59;100.00
11038;BME280;5572;49.540;11.932;2023-05-31T11:57:58;95834.94;;;24.40;100.00
11038;BME280;5572;49.540;11.932;2023-05-31T12:00:25;96066.94;;;24.16;100.00
11038;BME280;5572;49.540;11.932;2023-05-31T12:02:53;95750.78;;;23.65;100.00
11038;BME280;5572;49.540;11.932;2023-05-31T12:05:21;95797.00;;;24.86;100.00
11038;BME280;5572;49.540;11.932;2023-05-31T12:07:52;95934.84;;;25.29;100.00
11038;BME280;5572;49.540;11.932;2023-05-31T12:10:24;95997.91;;;22.98;100.00
11038;BME280;5572;49.540;11.932;2023-05-31T12:12:51;95876.56;;;23.59;100.00
11038;BME280;5572;49.540;11.932;2023-05-31T12:15:18;95639.69;;;24.99;100.00
11038;BME280;5572;49.540;11.932;2023-05-31T12:17:45;95812.03;;;24.40;100.00
11038;BME280;5572;49.540;11.932;2023-05-31T12:20:12;95990.56;;;24.93;100.00
11038;BME280;5572;49.540;11.932;2023-05-31T12:22:38;95873.88;;;25.57;100.00
11038;BME280;5572;49.540;11.932;2023-05-31T12:25:06;95829.00;;;24.80;100.00
11038;BME280;5572;49.540;11.932;2023-05-31T12:27:34;95543.00;;;23.85;100.00
11038;BME280;5572;49.540;11.932;2023-05-31T12:30:04;95630.06;;;24.32;100.00
11038;BME280;5572;49.540;11.932;2023-05-31T12:32:31;95821.88;;;26.00;100.00
11038;BME280;5572;49.540;11.932;2023-05-31T12:35:04;95659.31;;;24.15;100.00
11038;BME280;5572;49.540;11.932;2023-05-31T12:37:35;95978.38;;;25.12;100.00
11038;BME280;5572;49.540;11.932;2023-05-31T12:40:08;95740.06;;;25.03;100.00
11038;BME280;5572;49.540;11.932;2023-05-31T12:42:37;95604.78;;;24.40;100.00
11038;BME280;5572;49.540;11.932;2023-05-31T12:45:04;95763.41;;;23.69;100.00
11038;BME280;5572;49.540;11.932;2023-05-31T12:47:32;95875.63;;;24.82;100.00
11038;BME280;5572;49.540;11.932;2023-05-31T12:50:01;95916.25;;;25.40;100.00
11038;BME280;5572;49.540;11.932;2023-05-31T12:52:30;95905.88;;;25.72;100.00
11038;BME280;5572;49.540;11.932;2023-05-31T12:54:58;95804.50;;;25.92;100.00
11038;BME280;5572;49.540;11.932;2023-05-31T12:57:26;95951.06;;;25.38;100.00
11038;BME280;5572;49.540;11.932;2023-05-31T12:59:58;95706.91;;;24.89;100.00
11038;BME280;5572;49.540;11.932;2023-05-31T13:02:25;95791.88;;;24.88;100.00
11038;BME280;5572;49.540;11.932;2023-05-31T13:04:52;95635.25;;;24.16;100.00